Kezdőlap
METAR-TAF:

METAR-TAF

Repülőterek :

Mumbai, India

földrajzi szélesség: 19-05-53N, földrajzi hosszúság: 072-50-02E, magasság: 4 m

Jelenlegi meteorológiai megfigyelések

A jelentés 40 perccel ezelõtt készült, 09:00 UTC
Nyugat-északnyugati szél 10 kt
Hőmérséklet 31°C
Páratartalom 71%
Légköri nyomás 1005 hPa
Látótávolság: 5000 m
Kevés felhő 2000 lábon
Száraz légköri homály,

METAR: VAJJ 240900Z 29010KT 5000 HZ FEW020 31/25 Q1005 NOSIG

Idő: 15:10 (09:40 UTC)


TAF: hiányzik

Meteorológiai megfigyelések és előrejelzések több, mint 4000 repülőtéren (METAR és TAF jelentéseket).

A térképen piros és sárga pontok jelzik az elérhető meteorológiai állomásokat.

Mozgassa az egeret a pont fölött, hogy megjelenjen az állomás neve.

Azután kattintson az időjárási megfigyelések és előrejelzések megtekintéséhez.

A térkép megváltoztatása: kattintson a fekete keresztel jelölt zöld gombra ráközelítéshez, a vonallal jelölt zöld gombra távolításhoz, vagy a zöld nyilakra a szomszédos térképek eléréséhez.


METAR-TAF: